createdAt,value
2022-11-23T00:00:16.436Z,99211.22
2022-11-23T00:10:18.373Z,99208.63
2022-11-23T00:20:19.956Z,99217.09
2022-11-23T00:30:21.456Z,99228.28
2022-11-23T00:40:22.828Z,99235.13
2022-11-23T00:50:24.167Z,99245.41
2022-11-23T01:00:25.487Z,99245.38
2022-11-23T01:10:26.819Z,99253.88
2022-11-23T01:20:28.212Z,99264.16
2022-11-23T01:30:29.538Z,99277.81
2022-11-23T01:40:30.943Z,99277.78
2022-11-23T01:50:32.602Z,99271.72
2022-11-23T02:00:33.911Z,99279.44
2022-11-23T02:10:36.222Z,99296.63
2022-11-23T02:20:37.875Z,99297.41
2022-11-23T02:30:40.267Z,99309.47
2022-11-23T02:40:41.708Z,99311.97
2022-11-23T02:50:43.260Z,99311.00
2022-11-23T03:00:45.252Z,99312.66
2022-11-23T03:10:46.646Z,99323.91
2022-11-23T03:20:47.987Z,99323.91
2022-11-23T03:30:49.454Z,99327.19
2022-11-23T03:40:50.814Z,99330.56
2022-11-23T03:50:52.151Z,99331.41
2022-11-23T04:00:54.674Z,99334.97
2022-11-23T04:10:57.804Z,99326.38
2022-11-23T04:20:59.126Z,99332.38
2022-11-23T04:31:00.461Z,99328.88
2022-11-23T04:41:01.775Z,99340.97
2022-11-23T04:51:03.102Z,99347.84
2022-11-23T05:01:05.340Z,99341.84
2022-11-23T05:11:06.742Z,99341.00
2022-11-23T05:21:08.075Z,99349.63
2022-11-23T05:31:09.582Z,99341.84
2022-11-23T05:41:10.941Z,99335.94
2022-11-23T05:51:12.273Z,99340.28
2022-11-23T06:01:13.702Z,99351.38
2022-11-23T06:11:15.016Z,99355.66
2022-11-23T06:21:16.333Z,99357.47
2022-11-23T06:31:17.799Z,99366.13
2022-11-23T06:41:19.250Z,99363.63
2022-11-23T06:51:20.578Z,99366.25
2022-11-23T07:01:21.996Z,99381.66
2022-11-23T07:11:23.465Z,99393.72
2022-11-23T07:21:24.881Z,99389.44
2022-11-23T07:31:26.391Z,99395.53
2022-11-23T07:41:27.741Z,99405.00
2022-11-23T07:51:29.503Z,99409.28
2022-11-23T08:01:31.547Z,99419.50
2022-11-23T08:11:32.959Z,99416.88
2022-11-23T08:21:34.303Z,99429.66
2022-11-23T08:31:35.670Z,99436.50
2022-11-23T08:41:38.158Z,99444.94
2022-11-23T08:51:39.531Z,99441.44
2022-11-23T09:01:40.887Z,99437.84
2022-11-23T09:11:42.243Z,99444.66
2022-11-23T09:21:43.681Z,99452.34
2022-11-23T09:31:45.134Z,99451.41
2022-11-23T09:41:55.391Z,99454.66
2022-11-23T09:51:56.967Z,99449.47
2022-11-23T10:02:00.360Z,99458.03
2022-11-23T10:12:26.601Z,99456.91
2022-11-23T10:22:53.401Z,99444.81
2022-11-23T10:33:16.999Z,99449.88
2022-11-23T10:43:25.974Z,99426.56
2022-11-23T10:53:28.404Z,99413.63
2022-11-23T11:03:33.122Z,99413.56
2022-11-23T11:13:46.462Z,99387.69
2022-11-23T11:23:54.313Z,99391.84
2022-11-23T11:34:04.458Z,99352.31
2022-11-23T11:44:14.034Z,99359.06
2022-11-23T11:54:29.046Z,99358.94
2022-11-23T12:04:51.757Z,99355.47
2022-11-23T12:14:53.212Z,99353.78
2022-11-23T12:25:03.512Z,99361.25
2022-11-23T12:35:22.000Z,99358.50
2022-11-23T12:45:49.703Z,99351.56
2022-11-23T12:56:25.299Z,99331.38
2022-11-23T13:07:28.966Z,99322.78
2022-11-23T13:17:38.190Z,99301.44
2022-11-23T13:27:48.866Z,99297.19
2022-11-23T13:37:56.340Z,99305.88
2022-11-23T13:48:34.342Z,99289.72
2022-11-23T13:58:38.447Z,99306.16
2022-11-23T14:08:40.770Z,99298.72
2022-11-23T14:19:12.581Z,99282.56
2022-11-23T14:29:28.778Z,99292.22
2022-11-23T14:40:00.607Z,99293.16
2022-11-23T14:50:01.914Z,99290.66
2022-11-23T15:00:08.550Z,99312.13
2022-11-23T15:10:30.089Z,99330.22
2022-11-23T15:20:41.606Z,99343.84
2022-11-23T15:30:42.972Z,99362.78
2022-11-23T15:40:46.957Z,99393.72
2022-11-23T15:50:53.966Z,99403.34
2022-11-23T16:01:10.460Z,99418.09
2022-11-23T16:11:22.077Z,99447.47
2022-11-23T16:21:25.142Z,99468.38
2022-11-23T16:31:29.063Z,99478.03
2022-11-23T16:41:30.436Z,99486.69
2022-11-23T16:51:31.852Z,99507.41
2022-11-23T17:01:37.440Z,99493.75
2022-11-23T17:11:42.346Z,99505.06
2022-11-23T17:21:43.977Z,99473.31
2022-11-23T17:31:49.406Z,99518.88
2022-11-23T17:41:51.201Z,99549.03
2022-11-23T17:51:52.529Z,99561.97
2022-11-23T18:01:53.901Z,99568.03
2022-11-23T18:11:57.135Z,99567.19
2022-11-23T18:21:58.472Z,99582.69
2022-11-23T18:31:59.806Z,99586.97
2022-11-23T18:42:05.467Z,99596.44
2022-11-23T18:52:09.027Z,99621.31
2022-11-23T19:02:11.324Z,99625.59
2022-11-23T19:12:12.710Z,99661.66
2022-11-23T19:22:14.055Z,99662.50
2022-11-23T19:32:15.456Z,99668.53
2022-11-23T19:42:16.868Z,99676.28
2022-11-23T19:52:18.222Z,99689.97
2022-11-23T20:02:25.199Z,99709.72
2022-11-23T20:12:26.511Z,99718.34
2022-11-23T20:22:27.930Z,99733.78
2022-11-23T20:32:29.258Z,99745.03
2022-11-23T20:42:30.579Z,99734.78
2022-11-23T20:52:32.225Z,99746.88
2022-11-23T21:02:33.650Z,99765.81
2022-11-23T21:12:53.390Z,99770.09
2022-11-23T21:22:54.719Z,99789.00
2022-11-23T21:32:56.062Z,99795.91
2022-11-23T21:42:57.422Z,99800.19
2022-11-23T21:52:58.796Z,99814.78
2022-11-23T22:03:00.604Z,99829.38
2022-11-23T22:13:02.261Z,99829.38
2022-11-23T22:23:03.673Z,99855.09
2022-11-23T22:33:05.038Z,99865.41
2022-11-23T22:43:06.407Z,99877.41
2022-11-23T22:53:07.771Z,99890.25
2022-11-23T23:03:09.300Z,99898.81
2022-11-23T23:13:10.866Z,99908.22
2022-11-23T23:23:12.239Z,99920.22
2022-11-23T23:33:13.607Z,99931.38
2022-11-23T23:43:14.968Z,99947.66
2022-11-23T23:53:16.454Z,99952.78
